Terminal Aerodrome Forecast
Issued by NWS

Home | Current Version | Previous Version | Text Only | Print | Product List | Glossary On
Versions: 1 2 3 4 5 6 7 8 9 10 11 12 13 14 15 16 17 18 19 20 21
737
FTUS41 KBTV 271737
TAFRUT
TAF
KRUT 271737Z 2718/2818 20010G18KT P6SM SCT070
     FM272200 28004KT P6SM SCT070
     FM280000 22006KT P6SM SCT110
     FM280500 12004KT P6SM SCT120
     FM280800 12004KT P6SM BKN070
     FM281600 14008KT P6SM BKN040=

USA.gov is the U.S. government's official web portal to all federal, state and local government web resources and services.